Smeltertown, Colorado
Current Conditions -  °F | °C
As of 3:35 AM on Wednesday 22 Oct 2014 (Local Time) from KANK Reporting Station
Clear Clear  
Wind Chill: 43°   Ceiling: Unl
Heat Index: 43°   Visibility: 10mi
Dew Point: 39°   Wind: 3mph
Humidity: 88%   Direction: 290°WNW
Pressure: 30.22"   Gusts: NA
Location:  38.5561°N, 106.066°W
Report Text: KANK 220935Z AUTO 29003KT 10SM CLR 06/04 A3022 RMK AO1 T00590040
Loading
Personal Weather Stations






























Interactive Weather Map
Tropical Storm Tracking
New forecast layout! Learn more

10-Day Weather Forecast

Advertisements
Track Severe Weather on mobile